createdAt,value
2019-06-08T00:03:28.949Z,2.40
2019-06-08T00:08:23.015Z,7.63
2019-06-08T00:13:17.034Z,3.73
2019-06-08T00:18:09.573Z,1.43
2019-06-08T00:23:03.691Z,3.53
2019-06-08T00:27:57.866Z,3.27
2019-06-08T00:32:51.318Z,3.00
2019-06-08T00:37:44.914Z,1.43
2019-06-08T00:42:38.298Z,2.00
2019-06-08T00:47:46.976Z,2.87
2019-06-08T00:52:25.595Z,4.83
2019-06-08T00:57:19.693Z,9.13
2019-06-08T01:02:12.573Z,4.67
2019-06-08T01:07:05.960Z,6.00
2019-06-08T01:11:59.356Z,2.30
2019-06-08T01:16:53.014Z,2.90
2019-06-08T01:21:46.405Z,3.47
2019-06-08T01:26:40.552Z,2.83
2019-06-08T01:31:33.945Z,5.53
2019-06-08T01:36:28.819Z,2.70
2019-06-08T01:41:21.352Z,2.03
2019-06-08T01:46:14.509Z,3.63
2019-06-08T01:51:07.863Z,3.43
2019-06-08T01:56:02.350Z,3.87
2019-06-08T02:00:55.747Z,4.10
2019-06-08T02:05:49.251Z,1.70
2019-06-08T02:10:42.630Z,4.23
2019-06-08T02:15:36.183Z,7.47
2019-06-08T02:20:30.812Z,3.97
2019-06-08T02:25:25.472Z,5.97
2019-06-08T02:30:18.870Z,5.47
2019-06-08T02:35:12.333Z,1.70
2019-06-08T02:40:05.825Z,3.70
2019-06-08T02:44:59.221Z,13.10
2019-06-08T02:49:52.611Z,4.07
2019-06-08T02:54:46.004Z,3.70
2019-06-08T02:59:40.835Z,11.13
2019-06-08T03:04:36.425Z,2.13
2019-06-08T03:09:28.462Z,3.43
2019-06-08T03:14:21.903Z,6.83
2019-06-08T03:19:21.640Z,3.97
2019-06-08T03:24:08.902Z,2.30
2019-06-08T03:29:02.400Z,2.73
2019-06-08T03:33:56.737Z,3.00
2019-06-08T03:38:49.178Z,4.40
2019-06-08T03:43:42.805Z,3.60
2019-06-08T03:48:37.193Z,3.50
2019-06-08T03:53:29.898Z,3.30
2019-06-08T03:58:23.305Z,2.33
2019-06-08T04:03:16.982Z,5.40
2019-06-08T04:08:10.672Z,2.37
2019-06-08T04:13:04.355Z,3.70
2019-06-08T04:17:57.867Z,4.07
2019-06-08T04:22:51.724Z,2.77
2019-06-08T04:27:48.181Z,1.40
2019-06-08T04:32:42.878Z,3.37
2019-06-08T04:37:35.858Z,3.33
2019-06-08T04:42:35.791Z,2.43
2019-06-08T04:47:29.362Z,2.40
2019-06-08T04:52:23.062Z,2.17
2019-06-08T04:57:16.452Z,1.53
2019-06-08T05:02:09.845Z,3.30
2019-06-08T05:07:03.345Z,2.87
2019-06-08T05:11:56.746Z,1.53
2019-06-08T05:16:50.247Z,1.10
2019-06-08T05:21:43.629Z,2.97
2019-06-08T05:26:37.030Z,3.00
2019-06-08T05:31:30.424Z,3.47
2019-06-08T05:36:23.823Z,1.07
2019-06-08T05:41:17.247Z,4.30
2019-06-08T05:46:11.141Z,4.03
2019-06-08T05:51:04.679Z,4.03
2019-06-08T05:55:57.951Z,3.57
2019-06-08T06:00:51.352Z,4.60
2019-06-08T06:05:45.106Z,3.83
2019-06-08T06:10:38.799Z,7.33
2019-06-08T06:15:32.188Z,1.43
2019-06-08T06:20:25.603Z,5.70
2019-06-08T06:25:19.004Z,4.20
2019-06-08T06:30:12.392Z,3.70
2019-06-08T06:35:06.153Z,4.97
2019-06-08T06:39:59.551Z,5.30
2019-06-08T06:44:52.948Z,4.33
2019-06-08T06:49:46.488Z,2.37
2019-06-08T06:54:39.983Z,2.17
2019-06-08T06:59:33.802Z,3.60
2019-06-08T07:04:27.193Z,4.50
2019-06-08T07:09:20.616Z,5.27
2019-06-08T07:14:14.008Z,3.13
2019-06-08T07:19:07.638Z,3.70
2019-06-08T07:24:01.043Z,3.90
2019-06-08T07:28:55.351Z,3.30
2019-06-08T07:33:48.757Z,4.90
2019-06-08T07:38:41.808Z,5.50
2019-06-08T07:43:35.207Z,4.20
2019-06-08T07:48:28.626Z,3.13
2019-06-08T07:53:22.020Z,4.43
2019-06-08T07:58:15.426Z,3.67
2019-06-08T08:03:08.813Z,4.17
2019-06-08T08:08:02.195Z,5.50
2019-06-08T08:12:56.836Z,3.13
2019-06-08T08:17:49.287Z,2.73
2019-06-08T08:22:42.698Z,3.23
2019-06-08T08:27:37.561Z,2.70
2019-06-08T08:32:29.762Z,4.37
2019-06-08T08:37:23.410Z,5.27
2019-06-08T08:42:18.008Z,3.27
2019-06-08T08:47:10.478Z,4.97
2019-06-08T08:52:03.895Z,3.53
2019-06-08T08:57:01.797Z,3.83
2019-06-08T09:01:51.810Z,2.90
2019-06-08T09:06:44.115Z,3.30
2019-06-08T09:11:38.326Z,4.90
2019-06-08T09:16:30.935Z,3.23
2019-06-08T09:21:24.388Z,10.53
2019-06-08T09:26:18.188Z,8.67
2019-06-08T09:31:12.964Z,13.23
2019-06-08T09:36:07.714Z,15.23
2019-06-08T09:41:01.217Z,12.93
2019-06-08T09:45:53.735Z,15.07
2019-06-08T09:50:48.509Z,13.90
2019-06-08T09:55:41.471Z,17.43
2019-06-08T10:00:34.701Z,14.33
2019-06-08T10:05:28.663Z,17.33
2019-06-08T10:10:22.066Z,17.33
2019-06-08T10:15:17.746Z,22.63
2019-06-08T10:20:10.004Z,13.43
2019-06-08T10:25:06.594Z,13.30
2019-06-08T10:29:59.998Z,12.73
2019-06-08T10:34:50.723Z,10.03
2019-06-08T10:39:44.142Z,14.00
2019-06-08T10:44:38.199Z,15.80
2019-06-08T10:49:31.237Z,15.13
2019-06-08T10:54:24.650Z,9.07
2019-06-08T10:59:18.662Z,20.23
2019-06-08T11:04:11.857Z,24.13
2019-06-08T11:09:12.134Z,19.83
2019-06-08T11:14:00.935Z,17.50
2019-06-08T11:18:52.899Z,18.43
2019-06-08T11:24:01.788Z,19.13
2019-06-08T11:28:39.716Z,27.23
2019-06-08T11:33:33.163Z,21.97
2019-06-08T11:38:28.878Z,28.80
2019-06-08T11:43:20.059Z,17.97
2019-06-08T11:48:13.474Z,20.60
2019-06-08T11:53:07.834Z,18.97
2019-06-08T11:58:00.922Z,25.27
2019-06-08T12:02:54.214Z,21.87
2019-06-08T12:07:48.109Z,22.53
2019-06-08T12:12:41.339Z,30.17
2019-06-08T12:17:34.749Z,23.17
2019-06-08T12:22:28.174Z,23.97
2019-06-08T12:27:29.763Z,29.60
2019-06-08T12:32:16.272Z,25.20
2019-06-08T12:37:13.193Z,25.90
2019-06-08T12:42:01.798Z,24.50
2019-06-08T12:46:55.192Z,25.50
2019-06-08T12:51:51.692Z,24.37
2019-06-08T12:56:42.345Z,31.37
2019-06-08T13:01:38.032Z,19.77
2019-06-08T13:06:29.412Z,22.00
2019-06-08T13:11:23.071Z,28.80
2019-06-08T13:16:19.358Z,22.47
2019-06-08T13:21:21.783Z,31.40
2019-06-08T13:26:04.133Z,22.77
2019-06-08T13:30:58.168Z,23.30
2019-06-08T13:35:51.813Z,22.33
2019-06-08T13:40:45.216Z,22.17
2019-06-08T13:45:39.437Z,17.23
2019-06-08T13:50:32.069Z,20.93
2019-06-08T13:55:42.716Z,20.30
2019-06-08T14:00:21.824Z,21.87
2019-06-08T14:05:14.108Z,28.03
2019-06-08T14:10:06.880Z,15.50
2019-06-08T14:15:00.301Z,19.03
2019-06-08T14:19:54.069Z,16.17
2019-06-08T14:24:47.887Z,21.87
2019-06-08T14:29:41.304Z,19.23
2019-06-08T14:34:34.665Z,13.87
2019-06-08T14:39:31.071Z,13.63
2019-06-08T14:44:22.637Z,18.60
2019-06-08T14:49:15.040Z,13.73
2019-06-08T14:54:10.433Z,20.80
2019-06-08T14:59:01.836Z,12.03
2019-06-08T15:03:55.573Z,15.33
2019-06-08T15:08:50.409Z,13.97
2019-06-08T15:13:42.498Z,16.30
2019-06-08T15:18:35.917Z,16.87
2019-06-08T15:23:31.507Z,18.80
2019-06-08T15:28:22.764Z,21.13
2019-06-08T15:33:18.245Z,18.43
2019-06-08T15:38:09.638Z,13.47
2019-06-08T15:43:03.674Z,15.03
2019-06-08T15:47:58.746Z,15.30
2019-06-08T15:52:50.463Z,15.67
2019-06-08T15:57:50.434Z,17.60
2019-06-08T16:02:44.845Z,17.33
2019-06-08T16:07:38.552Z,17.13
2019-06-08T16:12:33.143Z,16.13
2019-06-08T16:17:25.506Z,19.80
2019-06-08T16:22:18.970Z,15.50
2019-06-08T16:27:12.823Z,23.00
2019-06-08T16:32:06.264Z,18.10
2019-06-08T16:36:59.802Z,21.07
2019-06-08T16:41:53.439Z,17.40
2019-06-08T16:46:46.861Z,16.33
2019-06-08T16:51:40.289Z,18.53
2019-06-08T16:56:34.117Z,18.93
2019-06-08T17:01:28.312Z,19.43
2019-06-08T17:06:20.530Z,12.33
2019-06-08T17:11:13.945Z,18.00
2019-06-08T17:16:07.365Z,17.20
2019-06-08T17:21:00.919Z,21.63
2019-06-08T17:25:54.446Z,17.30
2019-06-08T17:30:47.949Z,17.57
2019-06-08T17:35:42.339Z,13.53
2019-06-08T17:40:35.823Z,17.57
2019-06-08T17:45:28.178Z,15.47
2019-06-08T17:50:21.607Z,14.80
2019-06-08T17:55:15.024Z,13.60
2019-06-08T18:00:09.628Z,11.83
2019-06-08T18:05:02.395Z,17.47
2019-06-08T18:09:57.673Z,17.40
2019-06-08T18:14:49.374Z,16.97
2019-06-08T18:19:45.998Z,15.07
2019-06-08T18:24:39.215Z,20.17
2019-06-08T18:29:29.932Z,16.70
2019-06-08T18:34:23.346Z,17.23
2019-06-08T18:39:18.350Z,16.13
2019-06-08T18:44:10.979Z,15.17
2019-06-08T18:49:04.401Z,22.53
2019-06-08T18:54:08.661Z,15.83
2019-06-08T18:58:53.696Z,21.10
2019-06-08T19:03:47.775Z,16.17
2019-06-08T19:08:40.925Z,14.90
2019-06-08T19:13:32.238Z,17.77
2019-06-08T19:18:26.898Z,19.67
2019-06-08T19:23:21.321Z,18.37
2019-06-08T19:28:12.879Z,13.93
2019-06-08T19:33:07.326Z,15.43
2019-06-08T19:38:00.202Z,14.90
2019-06-08T19:42:59.919Z,17.17
2019-06-08T19:47:47.030Z,19.43
2019-06-08T19:52:43.762Z,16.83
2019-06-08T19:57:34.091Z,21.23
2019-06-08T20:02:27.637Z,22.43
2019-06-08T20:07:21.040Z,16.33
2019-06-08T20:12:14.797Z,18.97
2019-06-08T20:17:08.518Z,18.03
2019-06-08T20:22:01.966Z,26.37
2019-06-08T20:26:55.620Z,22.63
2019-06-08T20:31:51.444Z,23.87
2019-06-08T20:36:42.853Z,30.60
2019-06-08T20:41:37.635Z,29.13
2019-06-08T20:46:30.353Z,26.73
2019-06-08T20:51:23.759Z,18.33
2019-06-08T20:56:17.429Z,27.93
2019-06-08T21:01:10.613Z,20.07
2019-06-08T21:06:04.014Z,18.03
2019-06-08T21:11:01.719Z,25.03
2019-06-08T21:15:59.726Z,31.13
2019-06-08T21:20:49.270Z,22.30
2019-06-08T21:25:42.266Z,18.13
2019-06-08T21:30:37.801Z,21.10
2019-06-08T21:35:29.143Z,27.40
2019-06-08T21:40:23.366Z,29.53
2019-06-08T21:45:18.992Z,27.30
2019-06-08T21:50:10.195Z,29.10
2019-06-08T21:55:03.599Z,28.67
2019-06-08T22:00:18.762Z,25.97
2019-06-08T22:04:53.720Z,22.43
2019-06-08T22:09:43.939Z,30.20
2019-06-08T22:14:37.870Z,26.80
2019-06-08T22:19:30.752Z,24.97
2019-06-08T22:24:24.140Z,21.37
2019-06-08T22:29:18.216Z,24.53
2019-06-08T22:34:11.314Z,30.07
2019-06-08T22:39:07.848Z,23.10
2019-06-08T22:44:00.796Z,20.43
2019-06-08T22:48:55.346Z,29.80
2019-06-08T22:53:47.938Z,29.70
2019-06-08T22:58:40.948Z,27.03
2019-06-08T23:03:34.362Z,27.83
2019-06-08T23:08:28.185Z,21.00
2019-06-08T23:13:21.724Z,23.90
2019-06-08T23:18:17.645Z,31.20
2019-06-08T23:23:09.028Z,28.90
2019-06-08T23:28:03.281Z,26.93
2019-06-08T23:32:57.246Z,21.73
2019-06-08T23:37:49.875Z,25.93
2019-06-08T23:42:43.557Z,24.23
2019-06-08T23:47:41.185Z,27.20
2019-06-08T23:52:38.069Z,21.97
2019-06-08T23:57:30.779Z,20.47
